sensor_id;sensor_type;location;lat;lon;timestamp;pressure;altitude;pressure_sealevel;temperature;humidity
60240;BME280;46102;39.012;-7.064;2022-09-13T00:01:26;97538.28;;;19.04;100.00
60240;BME280;46102;39.012;-7.064;2022-09-13T00:03:26;97537.91;;;19.02;100.00
60240;BME280;46102;39.012;-7.064;2022-09-13T00:05:29;97537.91;;;19.05;100.00
60240;BME280;46102;39.012;-7.064;2022-09-13T00:07:30;97525.19;;;19.04;100.00
60240;BME280;46102;39.012;-7.064;2022-09-13T00:09:30;97534.72;;;19.00;100.00
60240;BME280;46102;39.012;-7.064;2022-09-13T00:11:31;97540.28;;;19.00;100.00
60240;BME280;46102;39.012;-7.064;2022-09-13T00:13:32;97526.00;;;19.01;100.00
60240;BME280;46102;39.012;-7.064;2022-09-13T00:15:34;97531.94;;;19.00;100.00
60240;BME280;46102;39.012;-7.064;2022-09-13T00:17:34;97536.72;;;19.03;100.00
60240;BME280;46102;39.012;-7.064;2022-09-13T00:19:36;97535.53;;;19.04;100.00
60240;BME280;46102;39.012;-7.064;2022-09-13T00:21:36;97524.41;;;19.07;100.00
60240;BME280;46102;39.012;-7.064;2022-09-13T00:23:37;97540.28;;;19.07;100.00
60240;BME280;46102;39.012;-7.064;2022-09-13T00:25:38;97531.94;;;19.10;100.00
60240;BME280;46102;39.012;-7.064;2022-09-13T00:27:39;97518.84;;;19.11;100.00
60240;BME280;46102;39.012;-7.064;2022-09-13T00:29:40;97520.00;;;19.13;100.00
60240;BME280;46102;39.012;-7.064;2022-09-13T00:31:41;97518.84;;;19.11;100.00
60240;BME280;46102;39.012;-7.064;2022-09-13T00:33:41;97503.75;;;19.12;100.00
60240;BME280;46102;39.012;-7.064;2022-09-13T00:35:42;97510.88;;;19.13;100.00
60240;BME280;46102;39.012;-7.064;2022-09-13T00:37:43;97502.16;;;19.14;100.00
60240;BME280;46102;39.012;-7.064;2022-09-13T00:39:44;97501.38;;;19.14;100.00
60240;BME280;46102;39.012;-7.064;2022-09-13T00:41:44;97497.38;;;19.15;100.00
60240;BME280;46102;39.012;-7.064;2022-09-13T00:43:51;97489.06;;;19.15;99.57
60240;BME280;46102;39.012;-7.064;2022-09-13T00:45:52;97485.47;;;19.18;99.77
60240;BME280;46102;39.012;-7.064;2022-09-13T00:47:59;97483.88;;;19.13;99.61
60240;BME280;46102;39.012;-7.064;2022-09-13T00:50:18;97492.25;;;19.10;100.00
60240;BME280;46102;39.012;-7.064;2022-09-13T00:52:23;97477.94;;;19.04;100.00
60240;BME280;46102;39.012;-7.064;2022-09-13T00:54:28;97480.31;;;19.02;100.00
60240;BME280;46102;39.012;-7.064;2022-09-13T00:56:35;97476.38;;;19.03;100.00
60240;BME280;46102;39.012;-7.064;2022-09-13T00:58:45;97487.06;;;18.98;100.00
60240;BME280;46102;39.012;-7.064;2022-09-13T01:00:49;97491.84;;;19.01;100.00
60240;BME280;46102;39.012;-7.064;2022-09-13T01:02:56;97483.53;;;19.01;100.00
60240;BME280;46102;39.012;-7.064;2022-09-13T01:04:58;97476.78;;;18.95;100.00
60240;BME280;46102;39.012;-7.064;2022-09-13T01:07:03;97493.44;;;18.95;100.00
60240;BME280;46102;39.012;-7.064;2022-09-13T01:09:06;97474.38;;;18.93;100.00
60240;BME280;46102;39.012;-7.064;2022-09-13T01:11:10;97460.09;;;18.95;100.00
60240;BME280;46102;39.012;-7.064;2022-09-13T01:13:19;97471.22;;;18.95;100.00
60240;BME280;46102;39.012;-7.064;2022-09-13T01:15:21;97477.56;;;18.95;100.00
60240;BME280;46102;39.012;-7.064;2022-09-13T01:17:22;97476.78;;;18.98;100.00
60240;BME280;46102;39.012;-7.064;2022-09-13T01:19:23;97468.06;;;18.96;100.00
60240;BME280;46102;39.012;-7.064;2022-09-13T01:21:50;97460.50;;;18.97;100.00
60240;BME280;46102;39.012;-7.064;2022-09-13T01:24:35;97444.22;;;18.95;100.00
60240;BME280;46102;39.012;-7.064;2022-09-13T01:31:14;97451.38;;;18.92;100.00
60240;BME280;46102;39.012;-7.064;2022-09-13T01:35:30;97437.88;;;18.98;100.00
60240;BME280;46102;39.012;-7.064;2022-09-13T01:37:45;97440.66;;;18.98;100.00
60240;BME280;46102;39.012;-7.064;2022-09-13T01:40:19;97437.88;;;18.91;100.00
60240;BME280;46102;39.012;-7.064;2022-09-13T01:42:48;97427.56;;;18.91;100.00
60240;BME280;46102;39.012;-7.064;2022-09-13T01:44:56;97429.13;;;18.89;100.00
60240;BME280;46102;39.012;-7.064;2022-09-13T01:51:35;97417.22;;;18.88;100.00
60240;BME280;46102;39.012;-7.064;2022-09-13T01:56:21;97425.97;;;18.90;99.46
60240;BME280;46102;39.012;-7.064;2022-09-13T01:58:55;97423.19;;;18.90;99.59
60240;BME280;46102;39.012;-7.064;2022-09-13T02:01:02;97411.28;;;18.86;99.38
60240;BME280;46102;39.012;-7.064;2022-09-13T02:03:30;97409.31;;;18.87;99.59
60240;BME280;46102;39.012;-7.064;2022-09-13T02:07:57;97417.22;;;18.96;98.42
60240;BME280;46102;39.012;-7.064;2022-09-13T02:10:09;97427.53;;;18.95;98.19
60240;BME280;46102;39.012;-7.064;2022-09-13T02:12:21;97427.16;;;18.97;97.78
60240;BME280;46102;39.012;-7.064;2022-09-13T02:14:37;97424.38;;;18.97;97.70
60240;BME280;46102;39.012;-7.064;2022-09-13T02:16:50;97425.56;;;18.99;96.36
60240;BME280;46102;39.012;-7.064;2022-09-13T02:18:58;97422.78;;;19.03;97.13
60240;BME280;46102;39.012;-7.064;2022-09-13T02:21:08;97424.75;;;19.02;97.05
60240;BME280;46102;39.012;-7.064;2022-09-13T02:23:26;97418.78;;;19.04;96.79
60240;BME280;46102;39.012;-7.064;2022-09-13T02:25:32;97407.28;;;19.02;95.77
60240;BME280;46102;39.012;-7.064;2022-09-13T02:27:36;97413.25;;;19.04;96.52
60240;BME280;46102;39.012;-7.064;2022-09-13T02:29:40;97412.81;;;19.09;95.54
60240;BME280;46102;39.012;-7.064;2022-09-13T02:31:55;97418.00;;;19.14;95.07
60240;BME280;46102;39.012;-7.064;2022-09-13T02:34:22;97406.88;;;19.14;95.63
60240;BME280;46102;39.012;-7.064;2022-09-13T02:36:30;97420.75;;;19.10;94.53
60240;BME280;46102;39.012;-7.064;2022-09-13T02:38:50;97413.22;;;19.11;95.24
60240;BME280;46102;39.012;-7.064;2022-09-13T02:40:59;97411.63;;;19.13;94.33
60240;BME280;46102;39.012;-7.064;2022-09-13T02:43:09;97408.44;;;19.15;94.27
60240;BME280;46102;39.012;-7.064;2022-09-13T02:45:12;97409.63;;;19.18;93.86
60240;BME280;46102;39.012;-7.064;2022-09-13T02:47:30;97402.09;;;19.14;93.75
60240;BME280;46102;39.012;-7.064;2022-09-13T02:50:02;97411.63;;;19.17;93.56
60240;BME280;46102;39.012;-7.064;2022-09-13T02:54:37;97411.63;;;19.21;92.61
60240;BME280;46102;39.012;-7.064;2022-09-13T02:57:00;97424.69;;;19.24;92.44
60240;BME280;46102;39.012;-7.064;2022-09-13T03:01:08;97418.72;;;19.29;91.83
60240;BME280;46102;39.012;-7.064;2022-09-13T03:03:11;97407.97;;;19.38;91.15
60240;BME280;46102;39.012;-7.064;2022-09-13T03:05:12;97401.25;;;19.32;91.92
60240;BME280;46102;39.012;-7.064;2022-09-13T03:07:13;97407.19;;;19.30;91.72
60240;BME280;46102;39.012;-7.064;2022-09-13T03:09:15;97400.44;;;19.35;91.10
60240;BME280;46102;39.012;-7.064;2022-09-13T03:16:18;97403.56;;;19.41;89.63
60240;BME280;46102;39.012;-7.064;2022-09-13T03:20:42;97390.88;;;19.36;89.70
60240;BME280;46102;39.012;-7.064;2022-09-13T03:25:35;97391.69;;;19.37;89.84
60240;BME280;46102;39.012;-7.064;2022-09-13T03:28:04;97399.25;;;19.29;90.69
60240;BME280;46102;39.012;-7.064;2022-09-13T03:30:13;97416.72;;;19.37;91.64
60240;BME280;46102;39.012;-7.064;2022-09-13T03:32:56;97423.47;;;19.35;92.04
60240;BME280;46102;39.012;-7.064;2022-09-13T03:35:05;97413.13;;;19.43;93.04
60240;BME280;46102;39.012;-7.064;2022-09-13T03:37:16;97420.72;;;19.32;94.52
60240;BME280;46102;39.012;-7.064;2022-09-13T03:39:38;97421.94;;;19.17;96.01
60240;BME280;46102;39.012;-7.064;2022-09-13T03:41:44;97433.91;;;19.03;98.21
60240;BME280;46102;39.012;-7.064;2022-09-13T03:43:53;97448.94;;;19.09;98.73
60240;BME280;46102;39.012;-7.064;2022-09-13T03:45:57;97442.22;;;18.99;100.00
60240;BME280;46102;39.012;-7.064;2022-09-13T03:48:02;97427.16;;;18.93;100.00
60240;BME280;46102;39.012;-7.064;2022-09-13T03:50:06;97433.53;;;18.83;100.00
60240;BME280;46102;39.012;-7.064;2022-09-13T03:52:07;97434.69;;;18.92;100.00
60240;BME280;46102;39.012;-7.064;2022-09-13T03:54:16;97405.31;;;18.84;100.00
60240;BME280;46102;39.012;-7.064;2022-09-13T03:56:18;97419.63;;;18.76;100.00
60240;BME280;46102;39.012;-7.064;2022-09-13T03:58:21;97414.47;;;18.78;100.00
60240;BME280;46102;39.012;-7.064;2022-09-13T04:00:21;97410.09;;;18.77;100.00
60240;BME280;46102;39.012;-7.064;2022-09-13T04:02:24;97406.13;;;18.88;100.00
60240;BME280;46102;39.012;-7.064;2022-09-13T04:04:25;97410.09;;;18.77;100.00
60240;BME280;46102;39.012;-7.064;2022-09-13T04:06:26;97400.97;;;18.80;100.00
60240;BME280;46102;39.012;-7.064;2022-09-13T04:08:27;97405.34;;;18.73;100.00
60240;BME280;46102;39.012;-7.064;2022-09-13T04:10:28;97408.47;;;18.93;100.00
60240;BME280;46102;39.012;-7.064;2022-09-13T04:12:31;97407.31;;;18.87;100.00
60240;BME280;46102;39.012;-7.064;2022-09-13T04:14:31;97393.84;;;18.89;100.00
60240;BME280;46102;39.012;-7.064;2022-09-13T04:16:32;97396.59;;;18.93;100.00
60240;BME280;46102;39.012;-7.064;2022-09-13T04:18:34;97396.97;;;18.99;100.00
60240;BME280;46102;39.012;-7.064;2022-09-13T04:20:35;97400.94;;;19.01;100.00
60240;BME280;46102;39.012;-7.064;2022-09-13T04:22:36;97401.34;;;18.89;100.00
60240;BME280;46102;39.012;-7.064;2022-09-13T04:24:36;97402.94;;;19.01;99.37
60240;BME280;46102;39.012;-7.064;2022-09-13T04:26:39;97405.31;;;18.95;99.48
60240;BME280;46102;39.012;-7.064;2022-09-13T04:28:39;97408.13;;;18.91;100.00
60240;BME280;46102;39.012;-7.064;2022-09-13T04:30:43;97408.09;;;18.95;100.00
60240;BME280;46102;39.012;-7.064;2022-09-13T04:32:44;97401.34;;;18.96;100.00
60240;BME280;46102;39.012;-7.064;2022-09-13T04:34:45;97404.91;;;19.00;100.00
60240;BME280;46102;39.012;-7.064;2022-09-13T04:36:47;97398.97;;;18.91;100.00
60240;BME280;46102;39.012;-7.064;2022-09-13T04:38:48;97404.53;;;18.84;100.00
60240;BME280;46102;39.012;-7.064;2022-09-13T04:40:54;97414.47;;;18.92;100.00
60240;BME280;46102;39.012;-7.064;2022-09-13T04:42:55;97422.41;;;18.90;100.00
60240;BME280;46102;39.012;-7.064;2022-09-13T04:44:55;97417.63;;;18.94;100.00
60240;BME280;46102;39.012;-7.064;2022-09-13T04:46:56;97425.56;;;18.88;100.00
60240;BME280;46102;39.012;-7.064;2022-09-13T04:48:57;97423.56;;;18.89;100.00
60240;BME280;46102;39.012;-7.064;2022-09-13T04:51:02;97429.56;;;18.87;100.00
60240;BME280;46102;39.012;-7.064;2022-09-13T04:53:04;97428.34;;;18.92;100.00
60240;BME280;46102;39.012;-7.064;2022-09-13T04:55:05;97433.50;;;18.93;100.00
60240;BME280;46102;39.012;-7.064;2022-09-13T04:57:06;97428.34;;;19.03;100.00
60240;BME280;46102;39.012;-7.064;2022-09-13T04:59:07;97439.47;;;18.92;100.00
60240;BME280;46102;39.012;-7.064;2022-09-13T05:01:08;97437.88;;;18.95;100.00
60240;BME280;46102;39.012;-7.064;2022-09-13T05:03:09;97444.59;;;19.04;100.00
60240;BME280;46102;39.012;-7.064;2022-09-13T05:05:10;97452.56;;;18.95;100.00
60240;BME280;46102;39.012;-7.064;2022-09-13T05:07:11;97456.13;;;18.88;100.00
60240;BME280;46102;39.012;-7.064;2022-09-13T05:09:13;97461.69;;;18.96;100.00
60240;BME280;46102;39.012;-7.064;2022-09-13T05:11:14;97466.06;;;18.97;100.00
60240;BME280;46102;39.012;-7.064;2022-09-13T05:13:15;97458.50;;;19.04;100.00
60240;BME280;46102;39.012;-7.064;2022-09-13T05:15:15;97471.59;;;19.04;100.00
60240;BME280;46102;39.012;-7.064;2022-09-13T05:17:16;97465.66;;;18.98;100.00
60240;BME280;46102;39.012;-7.064;2022-09-13T05:19:17;97474.78;;;18.99;100.00
60240;BME280;46102;39.012;-7.064;2022-09-13T05:21:18;97475.59;;;19.03;100.00
60240;BME280;46102;39.012;-7.064;2022-09-13T05:23:19;97479.56;;;18.98;100.00
60240;BME280;46102;39.012;-7.064;2022-09-13T05:25:19;97485.13;;;18.95;100.00
60240;BME280;46102;39.012;-7.064;2022-09-13T05:27:20;97495.81;;;18.92;100.00
60240;BME280;46102;39.012;-7.064;2022-09-13T05:29:21;97501.41;;;18.96;100.00
60240;BME280;46102;39.012;-7.064;2022-09-13T05:31:24;97504.16;;;18.92;100.00
60240;BME280;46102;39.012;-7.064;2022-09-13T05:33:28;97514.09;;;18.90;100.00
60240;BME280;46102;39.012;-7.064;2022-09-13T05:35:29;97508.53;;;18.83;100.00
60240;BME280;46102;39.012;-7.064;2022-09-13T05:37:29;97506.53;;;19.05;100.00
60240;BME280;46102;39.012;-7.064;2022-09-13T05:39:30;97511.31;;;19.01;100.00
60240;BME280;46102;39.012;-7.064;2022-09-13T05:41:31;97507.72;;;18.93;100.00
60240;BME280;46102;39.012;-7.064;2022-09-13T05:43:33;97509.31;;;18.90;100.00
60240;BME280;46102;39.012;-7.064;2022-09-13T05:45:34;97508.53;;;18.97;100.00
60240;BME280;46102;39.012;-7.064;2022-09-13T05:47:35;97515.66;;;19.02;100.00
60240;BME280;46102;39.012;-7.064;2022-09-13T05:49:36;97512.06;;;19.05;100.00
60240;BME280;46102;39.012;-7.064;2022-09-13T05:51:36;97511.72;;;19.03;100.00
60240;BME280;46102;39.012;-7.064;2022-09-13T05:53:38;97512.50;;;19.00;100.00
60240;BME280;46102;39.012;-7.064;2022-09-13T05:55:39;97512.09;;;18.90;100.00
60240;BME280;46102;39.012;-7.064;2022-09-13T05:57:40;97511.31;;;18.83;100.00
60240;BME280;46102;39.012;-7.064;2022-09-13T05:59:40;97512.09;;;18.83;100.00
60240;BME280;46102;39.012;-7.064;2022-09-13T06:01:41;97511.72;;;18.81;100.00
60240;BME280;46102;39.012;-7.064;2022-09-13T06:03:42;97506.91;;;18.71;100.00
60240;BME280;46102;39.012;-7.064;2022-09-13T06:05:43;97516.06;;;18.71;100.00
60240;BME280;46102;39.012;-7.064;2022-09-13T06:07:44;97511.66;;;18.70;100.00
60240;BME280;46102;39.012;-7.064;2022-09-13T06:09:45;97495.78;;;18.71;100.00
60240;BME280;46102;39.012;-7.064;2022-09-13T06:11:45;97504.53;;;18.69;100.00
60240;BME280;46102;39.012;-7.064;2022-09-13T06:13:46;97506.91;;;18.71;100.00
60240;BME280;46102;39.012;-7.064;2022-09-13T06:15:47;97507.72;;;18.71;100.00
60240;BME280;46102;39.012;-7.064;2022-09-13T06:17:48;97507.69;;;18.75;100.00
60240;BME280;46102;39.012;-7.064;2022-09-13T06:19:48;97512.09;;;18.76;100.00
60240;BME280;46102;39.012;-7.064;2022-09-13T06:21:49;97504.53;;;18.77;100.00
60240;BME280;46102;39.012;-7.064;2022-09-13T06:23:51;97500.97;;;18.76;100.00
60240;BME280;46102;39.012;-7.064;2022-09-13T06:26:10;97506.94;;;18.89;100.00
60240;BME280;46102;39.012;-7.064;2022-09-13T06:28:11;97517.28;;;18.92;100.00
60240;BME280;46102;39.012;-7.064;2022-09-13T06:30:12;97514.91;;;18.87;100.00
60240;BME280;46102;39.012;-7.064;2022-09-13T06:32:13;97516.06;;;18.97;100.00
60240;BME280;46102;39.012;-7.064;2022-09-13T06:34:14;97516.84;;;18.93;100.00
60240;BME280;46102;39.012;-7.064;2022-09-13T06:36:18;97524.41;;;18.97;100.00
60240;BME280;46102;39.012;-7.064;2022-09-13T06:38:19;97519.22;;;19.02;100.00
60240;BME280;46102;39.012;-7.064;2022-09-13T06:40:20;97528.00;;;19.01;100.00
60240;BME280;46102;39.012;-7.064;2022-09-13T06:42:22;97534.72;;;19.00;100.00
60240;BME280;46102;39.012;-7.064;2022-09-13T06:44:23;97531.94;;;19.07;100.00
60240;BME280;46102;39.012;-7.064;2022-09-13T06:46:28;97539.09;;;19.19;100.00
60240;BME280;46102;39.012;-7.064;2022-09-13T06:48:30;97539.09;;;19.08;100.00
60240;BME280;46102;39.012;-7.064;2022-09-13T06:50:31;97537.88;;;19.20;100.00
60240;BME280;46102;39.012;-7.064;2022-09-13T06:52:32;97543.44;;;19.20;100.00
60240;BME280;46102;39.012;-7.064;2022-09-13T06:54:33;97549.00;;;19.23;100.00
60240;BME280;46102;39.012;-7.064;2022-09-13T06:56:36;97545.44;;;19.26;100.00
60240;BME280;46102;39.012;-7.064;2022-09-13T06:58:38;97543.03;;;19.25;100.00
60240;BME280;46102;39.012;-7.064;2022-09-13T07:00:39;97547.03;;;19.17;100.00
60240;BME280;46102;39.012;-7.064;2022-09-13T07:02:40;97542.66;;;19.19;100.00
60240;BME280;46102;39.012;-7.064;2022-09-13T07:04:40;97543.81;;;19.29;99.87
60240;BME280;46102;39.012;-7.064;2022-09-13T07:06:43;97543.44;;;19.30;99.38
60240;BME280;46102;39.012;-7.064;2022-09-13T07:08:45;97545.44;;;19.26;98.91
60240;BME280;46102;39.012;-7.064;2022-09-13T07:10:47;97533.88;;;19.42;98.52
60240;BME280;46102;39.012;-7.064;2022-09-13T07:12:48;97546.56;;;19.47;96.73
60240;BME280;46102;39.012;-7.064;2022-09-13T07:14:48;97538.19;;;19.72;95.80
60240;BME280;46102;39.012;-7.064;2022-09-13T07:16:49;97542.09;;;19.92;92.63
60240;BME280;46102;39.012;-7.064;2022-09-13T07:18:54;97545.69;;;19.93;92.97
60240;BME280;46102;39.012;-7.064;2022-09-13T07:21:02;97543.63;;;20.11;90.65
60240;BME280;46102;39.012;-7.064;2022-09-13T07:23:03;97540.88;;;20.04;90.52
60240;BME280;46102;39.012;-7.064;2022-09-13T07:25:04;97549.13;;;20.22;90.74
60240;BME280;46102;39.012;-7.064;2022-09-13T07:27:05;97547.59;;;20.10;91.49
60240;BME280;46102;39.012;-7.064;2022-09-13T07:29:09;97558.25;;;20.30;90.57
60240;BME280;46102;39.012;-7.064;2022-09-13T07:31:12;97561.28;;;20.53;89.46
60240;BME280;46102;39.012;-7.064;2022-09-13T07:33:13;97544.00;;;20.84;87.18
60240;BME280;46102;39.012;-7.064;2022-09-13T07:35:14;97546.38;;;20.85;85.49
60240;BME280;46102;39.012;-7.064;2022-09-13T07:37:15;97543.75;;;20.60;86.95
60240;BME280;46102;39.012;-7.064;2022-09-13T07:39:16;97541.88;;;20.39;88.38
60240;BME280;46102;39.012;-7.064;2022-09-13T07:41:19;97537.19;;;20.22;89.53
60240;BME280;46102;39.012;-7.064;2022-09-13T07:43:20;97542.78;;;20.18;89.86
60240;BME280;46102;39.012;-7.064;2022-09-13T07:45:21;97543.81;;;20.46;88.60
60240;BME280;46102;39.012;-7.064;2022-09-13T07:47:23;97554.53;;;20.58;87.21
60240;BME280;46102;39.012;-7.064;2022-09-13T07:49:24;97552.09;;;20.64;87.52
60240;BME280;46102;39.012;-7.064;2022-09-13T07:51:30;97552.09;;;20.67;87.34
60240;BME280;46102;39.012;-7.064;2022-09-13T07:53:31;97566.81;;;20.68;87.13
60240;BME280;46102;39.012;-7.064;2022-09-13T07:55:33;97549.78;;;20.51;87.87
60240;BME280;46102;39.012;-7.064;2022-09-13T07:57:33;97561.19;;;20.75;87.26
60240;BME280;46102;39.012;-7.064;2022-09-13T07:59:34;97565.91;;;20.82;86.27
60240;BME280;46102;39.012;-7.064;2022-09-13T08:01:40;97555.06;;;20.94;87.12
60240;BME280;46102;39.012;-7.064;2022-09-13T08:03:42;97564.28;;;20.88;84.47
60240;BME280;46102;39.012;-7.064;2022-09-13T08:05:43;97571.47;;;20.85;84.88
60240;BME280;46102;39.012;-7.064;2022-09-13T08:07:44;97577.56;;;20.62;84.72
60240;BME280;46102;39.012;-7.064;2022-09-13T08:09:45;97575.22;;;20.57;86.22
60240;BME280;46102;39.012;-7.064;2022-09-13T08:11:50;97576.41;;;20.59;86.59
60240;BME280;46102;39.012;-7.064;2022-09-13T08:13:54;97575.25;;;20.50;86.21
60240;BME280;46102;39.012;-7.064;2022-09-13T08:15:55;97570.50;;;20.47;86.52
60240;BME280;46102;39.012;-7.064;2022-09-13T08:17:56;97570.50;;;20.43;87.42
60240;BME280;46102;39.012;-7.064;2022-09-13T08:19:57;97566.16;;;20.38;87.37
60240;BME280;46102;39.012;-7.064;2022-09-13T08:21:58;97568.56;;;20.33;86.66
60240;BME280;46102;39.012;-7.064;2022-09-13T08:24:00;97559.47;;;20.22;87.84
60240;BME280;46102;39.012;-7.064;2022-09-13T08:26:02;97573.44;;;20.11;90.02
60240;BME280;46102;39.012;-7.064;2022-09-13T08:28:08;97569.47;;;20.12;90.12
60240;BME280;46102;39.012;-7.064;2022-09-13T08:30:11;97567.88;;;20.07;90.54
60240;BME280;46102;39.012;-7.064;2022-09-13T08:32:12;97570.69;;;20.04;91.03
60240;BME280;46102;39.012;-7.064;2022-09-13T08:34:14;97570.66;;;20.07;92.18
60240;BME280;46102;39.012;-7.064;2022-09-13T08:36:16;97584.94;;;20.20;92.70
60240;BME280;46102;39.012;-7.064;2022-09-13T08:38:18;97576.16;;;20.25;91.28
60240;BME280;46102;39.012;-7.064;2022-09-13T08:40:19;97590.38;;;20.45;89.52
60240;BME280;46102;39.012;-7.064;2022-09-13T08:42:30;97588.78;;;20.51;87.47
60240;BME280;46102;39.012;-7.064;2022-09-13T08:46:44;97589.88;;;20.65;86.64
60240;BME280;46102;39.012;-7.064;2022-09-13T08:48:46;97593.06;;;20.67;87.77
60240;BME280;46102;39.012;-7.064;2022-09-13T08:50:52;97589.09;;;20.68;87.12
60240;BME280;46102;39.012;-7.064;2022-09-13T08:53:11;97596.97;;;20.80;86.35
60240;BME280;46102;39.012;-7.064;2022-09-13T08:57:31;97599.59;;;21.02;83.83
60240;BME280;46102;39.012;-7.064;2022-09-13T08:59:38;97602.25;;;21.19;83.55
60240;BME280;46102;39.012;-7.064;2022-09-13T09:04:33;97599.66;;;21.47;82.76
60240;BME280;46102;39.012;-7.064;2022-09-13T09:06:38;97599.91;;;21.63;79.39
60240;BME280;46102;39.012;-7.064;2022-09-13T09:08:46;97609.03;;;21.67;80.38
60240;BME280;46102;39.012;-7.064;2022-09-13T09:10:49;97599.44;;;21.68;77.14
60240;BME280;46102;39.012;-7.064;2022-09-13T09:12:58;97600.03;;;21.49;79.28
60240;BME280;46102;39.012;-7.064;2022-09-13T09:15:20;97587.56;;;21.12;80.91
60240;BME280;46102;39.012;-7.064;2022-09-13T09:17:25;97590.84;;;21.03;83.00
60240;BME280;46102;39.012;-7.064;2022-09-13T09:19:35;97599.09;;;21.14;82.73
60240;BME280;46102;39.012;-7.064;2022-09-13T09:21:37;97613.09;;;21.10;81.83
60240;BME280;46102;39.012;-7.064;2022-09-13T09:23:45;97602.47;;;20.91;83.51
60240;BME280;46102;39.012;-7.064;2022-09-13T09:25:55;97609.38;;;20.68;85.87
60240;BME280;46102;39.012;-7.064;2022-09-13T09:27:57;97615.34;;;20.67;86.22
60240;BME280;46102;39.012;-7.064;2022-09-13T09:30:00;97610.16;;;20.69;87.75
60240;BME280;46102;39.012;-7.064;2022-09-13T09:32:22;97612.78;;;20.97;88.14
60240;BME280;46102;39.012;-7.064;2022-09-13T09:38:53;97604.19;;;21.26;85.56
60240;BME280;46102;39.012;-7.064;2022-09-13T09:40:55;97609.38;;;21.24;84.73
60240;BME280;46102;39.012;-7.064;2022-09-13T09:42:59;97617.38;;;21.18;85.39
60240;BME280;46102;39.012;-7.064;2022-09-13T09:45:22;97620.59;;;21.17;84.15
60240;BME280;46102;39.012;-7.064;2022-09-13T09:47:27;97624.66;;;21.05;84.18
60240;BME280;46102;39.012;-7.064;2022-09-13T09:49:38;97632.16;;;21.15;82.66
60240;BME280;46102;39.012;-7.064;2022-09-13T09:52:02;97630.88;;;21.27;83.20
60240;BME280;46102;39.012;-7.064;2022-09-13T09:54:06;97638.91;;;21.21;84.09
60240;BME280;46102;39.012;-7.064;2022-09-13T09:56:19;97633.47;;;21.00;85.05
60240;BME280;46102;39.012;-7.064;2022-09-13T09:58:39;97628.78;;;20.86;85.05
60240;BME280;46102;39.012;-7.064;2022-09-13T10:00:54;97637.25;;;20.72;85.39
60240;BME280;46102;39.012;-7.064;2022-09-13T10:02:59;97638.47;;;20.60;83.61
60240;BME280;46102;39.012;-7.064;2022-09-13T10:05:02;97637.63;;;20.74;84.97
60240;BME280;46102;39.012;-7.064;2022-09-13T10:11:12;97646.59;;;21.03;84.55
60240;BME280;46102;39.012;-7.064;2022-09-13T10:13:19;97624.31;;;20.96;84.77
60240;BME280;46102;39.012;-7.064;2022-09-13T10:15:29;97626.38;;;20.88;85.25
60240;BME280;46102;39.012;-7.064;2022-09-13T10:17:34;97640.66;;;20.97;85.25
60240;BME280;46102;39.012;-7.064;2022-09-13T10:19:37;97641.16;;;20.82;83.15
60240;BME280;46102;39.012;-7.064;2022-09-13T10:21:39;97625.25;;;20.75;83.90
60240;BME280;46102;39.012;-7.064;2022-09-13T10:23:40;97640.38;;;20.77;84.34
60240;BME280;46102;39.012;-7.064;2022-09-13T10:25:42;97632.69;;;20.96;81.94
60240;BME280;46102;39.012;-7.064;2022-09-13T10:27:48;97629.00;;;21.13;83.14
60240;BME280;46102;39.012;-7.064;2022-09-13T10:29:52;97624.13;;;21.25;81.16
60240;BME280;46102;39.012;-7.064;2022-09-13T10:31:55;97618.03;;;21.44;81.77
60240;BME280;46102;39.012;-7.064;2022-09-13T10:34:05;97617.19;;;21.47;82.07
60240;BME280;46102;39.012;-7.064;2022-09-13T10:36:22;97618.94;;;21.72;81.49
60240;BME280;46102;39.012;-7.064;2022-09-13T10:38:33;97620.38;;;21.87;79.72
60240;BME280;46102;39.012;-7.064;2022-09-13T10:40:36;97611.22;;;22.21;78.85
60240;BME280;46102;39.012;-7.064;2022-09-13T10:42:55;97633.94;;;22.57;73.61
60240;BME280;46102;39.012;-7.064;2022-09-13T10:45:07;97647.31;;;22.73;72.59
60240;BME280;46102;39.012;-7.064;2022-09-13T10:47:19;97632.97;;;22.71;70.50
60240;BME280;46102;39.012;-7.064;2022-09-13T10:51:36;97649.72;;;22.71;69.50
60240;BME280;46102;39.012;-7.064;2022-09-13T10:53:39;97644.09;;;22.75;70.39
60240;BME280;46102;39.012;-7.064;2022-09-13T10:55:42;97625.81;;;22.97;69.36
60240;BME280;46102;39.012;-7.064;2022-09-13T10:57:55;97628.34;;;23.15;70.24
60240;BME280;46102;39.012;-7.064;2022-09-13T11:00:15;97630.34;;;23.42;67.56
60240;BME280;46102;39.012;-7.064;2022-09-13T11:02:42;97634.22;;;23.72;66.34
60240;BME280;46102;39.012;-7.064;2022-09-13T11:07:31;97633.16;;;24.29;63.64
60240;BME280;46102;39.012;-7.064;2022-09-13T11:09:40;97624.63;;;24.16;63.93
60240;BME280;46102;39.012;-7.064;2022-09-13T11:14:24;97632.00;;;24.26;66.00
60240;BME280;46102;39.012;-7.064;2022-09-13T11:21:42;97621.09;;;24.12;63.48
60240;BME280;46102;39.012;-7.064;2022-09-13T11:24:16;97619.84;;;24.13;64.37
60240;BME280;46102;39.012;-7.064;2022-09-13T11:34:16;97669.69;;;22.70;71.83
60240;BME280;46102;39.012;-7.064;2022-09-13T11:45:43;97631.63;;;20.75;80.43
60240;BME280;46102;39.012;-7.064;2022-09-13T11:55:29;97633.66;;;21.27;80.63
60240;BME280;46102;39.012;-7.064;2022-09-13T11:57:39;97625.59;;;21.40;80.46
60240;BME280;46102;39.012;-7.064;2022-09-13T11:59:48;97632.41;;;21.35;81.56
60240;BME280;46102;39.012;-7.064;2022-09-13T12:01:56;97624.69;;;21.54;80.16
60240;BME280;46102;39.012;-7.064;2022-09-13T12:04:03;97625.06;;;21.59;79.45
60240;BME280;46102;39.012;-7.064;2022-09-13T12:06:29;97618.72;;;21.55;79.27
60240;BME280;46102;39.012;-7.064;2022-09-13T12:08:34;97608.25;;;21.67;79.50
60240;BME280;46102;39.012;-7.064;2022-09-13T12:10:42;97610.94;;;21.77;79.96
60240;BME280;46102;39.012;-7.064;2022-09-13T12:12:47;97601.56;;;21.95;77.67
60240;BME280;46102;39.012;-7.064;2022-09-13T12:14:55;97598.63;;;22.09;76.98
60240;BME280;46102;39.012;-7.064;2022-09-13T12:17:03;97618.88;;;22.13;75.58